Time;durP1;ratioP1;P1;durP2;ratioP2;P2;SDS_P1;SDS_P2;PMS_P1;PMS_P2;Temp;Humidity;BMP_temperature;BMP_pressure;BME280_temperature;BME280_humidity;BME280_pressure;Samples;Min_cycle;Max_cycle;Signal;HPM_P1;HPM_P2
2023/01/15 00:02:06;;;;;;;;;;;;;;;10.16;59.03;99025.41;4992764;28;6956;-73
2023/01/15 00:04:32;;;;;;;;;;;;;;;10.11;58.68;99038.09;4989299;28;7218;-73
2023/01/15 00:06:58;;;;;;;;;;;;;;;10.03;59.30;99026.75;4979764;28;6820;-73
2023/01/15 00:09:23;;;;;;;;;;;;;;;10.01;58.34;99013.06;4986723;28;7005;-73
2023/01/15 00:11:49;;;;;;;;;;;;;;;9.98;58.50;99020.66;4978287;28;7008;-73
2023/01/15 00:14:15;;;;;;;;;;;;;;;9.99;59.52;99015.59;4967262;28;6784;-73
2023/01/15 00:16:40;;;;;;;;;;;;;;;10.06;58.80;99021.75;4965906;28;6836;-73
2023/01/15 00:19:10;;;;;;;;;;;;;;;10.10;59.14;99015.03;4968845;28;6911;-73
2023/01/15 00:21:36;;;;;;;;;;;;;;;10.14;59.08;99014.28;4990118;28;6791;-73
2023/01/15 00:27:47;;;;;;;;;;;;;;;10.20;58.27;99004.22;4978161;28;6804;-73
2023/01/15 00:29:41;;;;;;;;;;;;;;;10.24;58.39;98993.22;4969563;28;6848;-73
2023/01/15 00:32:08;;;;;;;;;;;;;;;10.27;58.20;98990.72;4993292;28;6788;-73
2023/01/15 00:34:35;;;;;;;;;;;;;;;10.33;57.92;99002.81;4976346;28;7067;-73
2023/01/15 00:37:01;;;;;;;;;;;;;;;10.37;58.18;99002.09;4962680;28;6788;-73
2023/01/15 00:39:27;;;;;;;;;;;;;;;10.39;57.66;98994.47;4966121;28;6800;-73
2023/01/15 00:41:54;;;;;;;;;;;;;;;10.40;57.51;98968.88;4966688;28;6764;-73
2023/01/15 00:44:21;;;;;;;;;;;;;;;10.45;56.97;98986.09;4982292;28;6780;-73
2023/01/15 00:46:47;;;;;;;;;;;;;;;10.45;57.60;98992.06;4994485;28;7374;-73
2023/01/15 00:49:13;;;;;;;;;;;;;;;10.47;57.05;98984.44;4993232;28;6992;-73
2023/01/15 00:51:39;;;;;;;;;;;;;;;10.49;57.36;98988.78;4979506;28;6772;-73
2023/01/15 00:54:04;;;;;;;;;;;;;;;10.52;57.04;98965.78;4979365;28;6929;-73
2023/01/15 00:56:30;;;;;;;;;;;;;;;10.52;56.94;98980.28;4978865;28;10393;-73
2023/01/15 00:58:57;;;;;;;;;;;;;;;10.54;56.60;98965.84;4969485;28;7163;-73
2023/01/15 01:01:23;;;;;;;;;;;;;;;10.54;56.58;98968.41;4981197;28;7241;-73
2023/01/15 01:03:51;;;;;;;;;;;;;;;10.55;56.36;98983.78;4966924;28;6994;-73
2023/01/15 01:06:19;;;;;;;;;;;;;;;10.56;56.39;98989.78;4972325;28;6844;-73
2023/01/15 01:08:45;;;;;;;;;;;;;;;10.57;56.32;98988.97;4967460;28;7026;-73
2023/01/15 01:11:17;;;;;;;;;;;;;;;10.56;56.41;98985.53;4999471;28;6986;-73
2023/01/15 01:13:45;;;;;;;;;;;;;;;10.60;56.40;98995.88;4965032;28;7267;-73
2023/01/15 01:16:24;;;;;;;;;;;;;;;10.60;56.32;99001.00;4979649;28;6784;-74
2023/01/15 01:18:50;;;;;;;;;;;;;;;10.61;56.66;98998.44;4983505;28;7015;-73
2023/01/15 01:21:16;;;;;;;;;;;;;;;10.61;56.10;99003.56;4975046;28;6836;-73
2023/01/15 01:23:42;;;;;;;;;;;;;;;10.64;56.19;99006.22;4974518;28;7281;-74
2023/01/15 01:26:08;;;;;;;;;;;;;;;10.65;56.17;99005.41;4983439;28;7255;-73
2023/01/15 01:28:35;;;;;;;;;;;;;;;10.67;56.26;99015.66;4999381;28;7424;-73
2023/01/15 01:31:05;;;;;;;;;;;;;;;10.68;56.44;99002.91;4996722;28;7720;-73
2023/01/15 01:33:30;;;;;;;;;;;;;;;10.70;56.55;98997.84;4971209;28;6987;-73
2023/01/15 01:35:56;;;;;;;;;;;;;;;10.72;56.57;99010.66;4994808;28;7045;-73
2023/01/15 01:38:21;;;;;;;;;;;;;;;10.72;56.19;99010.66;4971208;28;6856;-73
2023/01/15 01:40:47;;;;;;;;;;;;;;;10.74;56.29;99007.31;4997897;28;6848;-73
2023/01/15 01:43:29;;;;;;;;;;;;;;;10.74;56.06;98996.22;4986465;28;7046;-73
2023/01/15 01:45:55;;;;;;;;;;;;;;;10.74;56.14;99001.34;4988964;28;7203;-73
2023/01/15 01:48:32;;;;;;;;;;;;;;;10.75;56.33;99023.56;5000534;28;6993;-73
2023/01/15 01:51:01;;;;;;;;;;;;;;;10.77;56.21;99027.91;4984186;28;7002;-73
2023/01/15 01:53:31;;;;;;;;;;;;;;;10.78;55.92;99039.03;4970232;28;6979;-74
2023/01/15 01:55:59;;;;;;;;;;;;;;;10.82;55.93;99028.88;4988042;28;6800;-74
2023/01/15 01:58:31;;;;;;;;;;;;;;;10.84;55.29;99036.63;4979333;28;6807;-73
2023/01/15 02:00:59;;;;;;;;;;;;;;;10.87;55.79;99041.81;4974638;28;6884;-73
2023/01/15 02:03:35;;;;;;;;;;;;;;;10.90;55.63;99031.63;4985246;28;7238;-73
2023/01/15 02:06:08;;;;;;;;;;;;;;;10.91;55.57;98999.19;4969250;28;7870;-73
2023/01/15 02:08:38;;;;;;;;;;;;;;;10.87;55.62;98985.41;4986633;28;7052;-73
2023/01/15 02:11:06;;;;;;;;;;;;;;;10.89;55.25;99004.25;4976796;28;7091;-73
2023/01/15 02:13:49;;;;;;;;;;;;;;;10.86;55.16;99001.63;4970447;28;7165;-73
2023/01/15 02:16:36;;;;;;;;;;;;;;;10.87;54.96;99007.63;4969820;28;8870;-73
2023/01/15 02:19:26;;;;;;;;;;;;;;;10.90;54.88;99002.56;4985604;28;6804;-73
2023/01/15 02:22:43;;;;;;;;;;;;;;;10.91;55.23;99000.06;4995978;28;7025;-73
2023/01/15 02:25:30;;;;;;;;;;;;;;;10.93;55.14;99000.97;4985072;28;7097;-73
2023/01/15 02:28:09;;;;;;;;;;;;;;;10.96;55.09;99000.13;4971304;28;7886;-73
2023/01/15 02:30:46;;;;;;;;;;;;;;;10.98;54.95;98973.72;4967415;28;7198;-73
2023/01/15 02:33:32;;;;;;;;;;;;;;;11.02;55.07;98984.06;4985527;28;6807;-73
2023/01/15 02:36:00;;;;;;;;;;;;;;;10.99;54.82;98984.84;4985982;28;7189;-73
2023/01/15 02:38:43;;;;;;;;;;;;;;;11.00;55.08;98991.72;4969261;28;7168;-73
2023/01/15 02:41:16;;;;;;;;;;;;;;;11.03;55.18;98989.22;4985037;28;6884;-73
2023/01/15 02:43:52;;;;;;;;;;;;;;;11.05;54.93;98981.56;4953754;28;7011;-74
2023/01/15 02:46:27;;;;;;;;;;;;;;;11.04;54.61;98995.22;4983733;28;7054;-73
2023/01/15 02:48:57;;;;;;;;;;;;;;;11.04;54.85;98984.97;4970488;28;6812;-73
2023/01/15 02:51:33;;;;;;;;;;;;;;;11.05;54.76;98974.72;4982678;28;6868;-73
2023/01/15 02:54:04;;;;;;;;;;;;;;;11.07;54.66;98972.19;4994421;28;6796;-73
2023/01/15 02:56:34;;;;;;;;;;;;;;;11.09;54.70;98978.22;4982490;28;6636;-73
2023/01/15 02:59:11;;;;;;;;;;;;;;;11.07;54.50;98967.97;4969776;28;6792;-73
2023/01/15 03:01:49;;;;;;;;;;;;;;;11.06;54.03;98967.91;4969331;28;6820;-73
2023/01/15 03:04:20;;;;;;;;;;;;;;;11.06;54.37;98971.34;4983003;28;6876;-73
2023/01/15 03:07:26;;;;;;;;;;;;;;;11.07;54.39;98978.22;4992358;28;6799;-73
2023/01/15 03:09:55;;;;;;;;;;;;;;;11.04;54.31;98977.28;4979481;28;7009;-73
2023/01/15 03:12:31;;;;;;;;;;;;;;;11.01;54.06;98975.50;4966252;28;6803;-73
2023/01/15 03:15:10;;;;;;;;;;;;;;;11.05;54.21;98976.44;4966487;28;6868;-73
2023/01/15 03:17:54;;;;;;;;;;;;;;;11.05;54.39;98984.13;4978858;28;6808;-73
2023/01/15 03:20:29;;;;;;;;;;;;;;;11.04;53.79;98979.84;4968380;28;6788;-73
2023/01/15 03:23:10;;;;;;;;;;;;;;;11.01;53.99;98982.31;4968031;28;6800;-74
2023/01/15 03:25:44;;;;;;;;;;;;;;;11.00;53.86;98972.88;4966382;28;7311;-73
2023/01/15 03:28:14;;;;;;;;;;;;;;;10.98;53.68;98975.44;4996473;28;6852;-73
2023/01/15 03:30:40;;;;;;;;;;;;;;;10.98;53.90;98978.84;4981177;28;6800;-73
2023/01/15 03:33:10;;;;;;;;;;;;;;;10.98;53.80;98968.59;4967072;28;6983;-73
2023/01/15 03:35:51;;;;;;;;;;;;;;;10.95;53.58;98967.66;4977689;28;6804;-73
2023/01/15 03:38:21;;;;;;;;;;;;;;;10.90;53.99;98952.16;4996154;28;7019;-73
2023/01/15 03:41:10;;;;;;;;;;;;;;;10.87;53.62;98959.78;4962401;28;6979;-74
2023/01/15 03:44:10;;;;;;;;;;;;;;;10.89;53.42;98970.94;4980035;28;7664;-73
2023/01/15 03:47:03;;;;;;;;;;;;;;;10.88;53.60;98979.47;4974772;28;6799;-73
2023/01/15 03:49:57;;;;;;;;;;;;;;;10.90;53.56;98985.47;4981914;28;6808;-73
2023/01/15 03:52:30;;;;;;;;;;;;;;;10.91;53.48;98982.13;4983908;28;6988;-73
2023/01/15 03:55:01;;;;;;;;;;;;;;;10.92;53.87;98973.59;4970839;28;7063;-73
2023/01/15 03:57:54;;;;;;;;;;;;;;;10.95;53.85;98977.91;4977917;28;6991;-73
2023/01/15 04:00:26;;;;;;;;;;;;;;;10.92;53.52;98972.72;4977639;28;7301;-72
2023/01/15 04:02:56;;;;;;;;;;;;;;;10.92;53.86;98965.91;4966845;28;6800;-72
2023/01/15 04:05:25;;;;;;;;;;;;;;;10.92;53.74;98958.22;4980307;28;6990;-72
2023/01/15 04:07:53;;;;;;;;;;;;;;;10.92;53.98;98972.72;4967459;28;7207;-72
2023/01/15 04:10:19;;;;;;;;;;;;;;;10.94;53.54;98971.03;4966534;28;7392;-73
2023/01/15 04:12:46;;;;;;;;;;;;;;;10.94;53.88;98968.47;4993235;28;6872;-72
2023/01/15 04:15:12;;;;;;;;;;;;;;;10.95;54.14;98971.09;4972769;28;6869;-72
2023/01/15 04:17:38;;;;;;;;;;;;;;;10.97;53.80;98968.56;4994256;28;6995;-72
2023/01/15 04:20:04;;;;;;;;;;;;;;;10.97;53.78;98971.16;4973945;28;6780;-72
2023/01/15 04:22:30;;;;;;;;;;;;;;;10.99;53.82;98987.41;4993532;28;6796;-72
2023/01/15 04:24:56;;;;;;;;;;;;;;;11.00;53.83;98981.47;4970842;28;6792;-72
2023/01/15 04:27:22;;;;;;;;;;;;;;;11.00;53.83;98970.31;4998894;28;7010;-72
2023/01/15 04:29:47;;;;;;;;;;;;;;;11.00;53.66;98976.34;4964998;28;6947;-72
2023/01/15 04:32:13;;;;;;;;;;;;;;;11.04;53.81;98972.16;4966592;28;7300;-73
2023/01/15 04:34:39;;;;;;;;;;;;;;;11.05;53.74;98973.88;4993924;28;6784;-72
2023/01/15 04:37:05;;;;;;;;;;;;;;;11.06;53.79;98970.47;4991603;28;6967;-73
2023/01/15 04:39:32;;;;;;;;;;;;;;;11.06;53.79;98976.47;4974273;28;6788;-72
2023/01/15 04:44:41;;;;;;;;;;;;;;;11.08;53.84;98968.81;4983250;28;6812;-72
2023/01/15 04:47:07;;;;;;;;;;;;;;;11.08;53.42;98989.31;4980403;28;6776;-72
2023/01/15 04:49:33;;;;;;;;;;;;;;;11.08;53.60;98989.31;4996151;28;7047;-72
2023/01/15 04:51:59;;;;;;;;;;;;;;;11.10;53.56;98987.66;4981125;28;6943;-72
2023/01/15 04:54:24;;;;;;;;;;;;;;;11.09;53.95;98980.78;4976018;28;7286;-72
2023/01/15 04:56:53;;;;;;;;;;;;;;;11.09;53.84;98976.53;4977428;28;6938;-72
2023/01/15 04:59:23;;;;;;;;;;;;;;;11.10;53.47;98979.97;4978389;28;6788;-72
2023/01/15 05:01:49;;;;;;;;;;;;;;;11.07;53.32;98987.59;4992116;28;7336;-72
2023/01/15 05:04:16;;;;;;;;;;;;;;;11.07;53.58;98988.47;4976716;28;6987;-72
2023/01/15 05:06:41;;;;;;;;;;;;;;;11.08;53.58;98987.63;4948315;28;7062;-73
2023/01/15 05:09:08;;;;;;;;;;;;;;;11.08;53.20;98999.56;4966028;28;6780;-72
2023/01/15 05:11:36;;;;;;;;;;;;;;;11.07;53.64;98985.03;4982547;28;7268;-72
2023/01/15 05:14:04;;;;;;;;;;;;;;;11.05;53.91;98989.25;4965889;28;6942;-72
2023/01/15 05:16:30;;;;;;;;;;;;;;;11.02;53.82;98984.91;4994554;28;7051;-72
2023/01/15 05:19:01;;;;;;;;;;;;;;;10.99;53.58;98997.69;4980673;28;6784;-72
2023/01/15 05:21:34;;;;;;;;;;;;;;;10.97;53.50;98987.38;4949835;28;7568;-72
2023/01/15 05:24:03;;;;;;;;;;;;;;;11.00;53.67;99001.97;4967635;28;6784;-72
2023/01/15 05:26:31;;;;;;;;;;;;;;;11.01;53.59;98984.88;4990542;28;6852;-72
2023/01/15 05:28:59;;;;;;;;;;;;;;;11.00;53.72;98980.56;4994654;28;6937;-72
2023/01/15 05:31:26;;;;;;;;;;;;;;;11.00;53.41;98976.34;4971981;28;6792;-72
2023/01/15 05:33:53;;;;;;;;;;;;;;;10.97;53.69;98964.28;4978925;28;6768;-72
2023/01/15 05:36:23;;;;;;;;;;;;;;;10.96;53.53;98969.38;4991584;28;7264;-72
2023/01/15 05:38:49;;;;;;;;;;;;;;;10.93;53.70;98975.31;4978572;28;6864;-72
2023/01/15 05:42:03;;;;;;;;;;;;;;;10.93;53.92;98975.31;4964860;28;6871;-73
2023/01/15 05:44:08;;;;;;;;;;;;;;;10.89;53.83;98973.50;4971489;28;6832;-72
2023/01/15 05:46:37;;;;;;;;;;;;;;;10.88;53.49;98984.59;4963738;28;6931;-72
2023/01/15 05:49:07;;;;;;;;;;;;;;;10.90;53.62;99000.00;4967797;28;6776;-72
2023/01/15 05:51:35;;;;;;;;;;;;;;;10.90;53.63;99002.56;4978700;28;6788;-72
2023/01/15 05:54:01;;;;;;;;;;;;;;;10.87;53.71;99013.63;4995235;28;6804;-72
2023/01/15 05:56:27;;;;;;;;;;;;;;;10.87;53.67;98995.69;4981984;28;6965;-72
2023/01/15 05:58:53;;;;;;;;;;;;;;;10.91;53.73;99010.31;4963074;28;6772;-72
2023/01/15 06:01:19;;;;;;;;;;;;;;;10.91;53.53;99012.00;4989101;28;6776;-72
2023/01/15 06:03:47;;;;;;;;;;;;;;;10.92;53.36;99006.91;4962107;28;6961;-72
2023/01/15 06:06:16;;;;;;;;;;;;;;;10.91;53.55;99012.88;4966319;28;7113;-72
2023/01/15 06:08:42;;;;;;;;;;;;;;;10.89;53.50;99014.50;4968513;28;6788;-73
2023/01/15 06:11:09;;;;;;;;;;;;;;;10.91;53.37;99012.88;4969204;28;7082;-73
2023/01/15 06:13:36;;;;;;;;;;;;;;;10.89;53.19;99011.94;4965788;28;6954;-72
2023/01/15 06:16:02;;;;;;;;;;;;;;;10.91;53.33;99012.88;4973058;28;7065;-72
2023/01/15 06:18:28;;;;;;;;;;;;;;;10.92;53.05;99019.75;4970331;28;6784;-72
2023/01/15 06:20:53;;;;;;;;;;;;;;;10.92;53.12;99016.28;4969005;28;6955;-72
2023/01/15 06:23:19;;;;;;;;;;;;;;;10.94;53.26;99028.31;4978517;28;6800;-72
2023/01/15 06:25:45;;;;;;;;;;;;;;;10.94;53.46;99022.31;4982662;28;6848;-72
2023/01/15 06:28:11;;;;;;;;;;;;;;;10.94;53.40;99012.94;4984735;28;6776;-72
2023/01/15 06:30:38;;;;;;;;;;;;;;;10.94;53.52;99032.56;4978864;28;7235;-72
2023/01/15 06:33:06;;;;;;;;;;;;;;;10.94;53.44;99036.00;4980446;28;7037;-72
2023/01/15 06:35:32;;;;;;;;;;;;;;;10.95;53.27;99032.63;4972411;28;6792;-72
2023/01/15 06:37:57;;;;;;;;;;;;;;;10.94;53.64;99033.44;4983118;28;6809;-72
2023/01/15 06:40:25;;;;;;;;;;;;;;;10.94;53.54;99037.69;4983127;28;7028;-73
2023/01/15 06:48:25;;;;;;;;;;;;;;;10.93;53.09;99030.84;4968446;28;6804;-72
2023/01/15 06:50:52;;;;;;;;;;;;;;;10.92;53.29;99021.41;4980934;28;6788;-73
2023/01/15 06:53:19;;;;;;;;;;;;;;;10.89;53.15;99022.19;4982425;28;7147;-72
2023/01/15 06:55:44;;;;;;;;;;;;;;;10.88;53.83;99033.28;4975918;28;8084;-72
2023/01/15 06:58:10;;;;;;;;;;;;;;;10.89;53.23;99035.03;4982520;28;7055;-72
2023/01/15 07:00:36;;;;;;;;;;;;;;;10.89;53.50;99032.47;4995380;28;7163;-72
2023/01/15 07:03:03;;;;;;;;;;;;;;;10.88;53.45;99015.34;4974310;28;6768;-72
2023/01/15 07:05:29;;;;;;;;;;;;;;;10.84;53.46;99027.22;4997089;28;6792;-72
2023/01/15 07:07:57;;;;;;;;;;;;;;;10.82;52.94;99040.84;4982957;28;6840;-72
2023/01/15 07:10:22;;;;;;;;;;;;;;;10.79;53.65;99041.63;4993564;28;7296;-72
2023/01/15 07:12:48;;;;;;;;;;;;;;;10.74;53.40;99062.84;4977002;28;7842;-73
2023/01/15 07:15:14;;;;;;;;;;;;;;;10.69;54.01;99053.31;4970024;28;7215;-72
2023/01/15 07:17:40;;;;;;;;;;;;;;;10.67;53.86;99056.66;4979211;28;6784;-73
2023/01/15 07:20:06;;;;;;;;;;;;;;;10.62;53.29;99061.69;4980544;28;7116;-72
2023/01/15 07:22:32;;;;;;;;;;;;;;;10.65;53.42;99077.16;4994733;28;6860;-72
2023/01/15 07:24:58;;;;;;;;;;;;;;;10.66;53.74;99076.31;4966591;28;7023;-72
2023/01/15 07:27:24;;;;;;;;;;;;;;;10.65;53.20;99083.94;4980864;28;7171;-73
2023/01/15 07:29:50;;;;;;;;;;;;;;;10.65;52.95;99097.66;4956815;28;6992;-72
2023/01/15 07:32:17;;;;;;;;;;;;;;;10.65;52.80;99092.53;4993164;28;6854;-72
2023/01/15 07:34:44;;;;;;;;;;;;;;;10.62;53.01;99097.56;4977006;28;7039;-72
2023/01/15 07:37:09;;;;;;;;;;;;;;;10.57;53.11;99083.75;4996474;28;6864;-72
2023/01/15 07:39:35;;;;;;;;;;;;;;;10.51;52.00;99106.63;4981505;28;6780;-73
2023/01/15 07:50:20;;;;;;;;;;;;;;;10.12;52.48;99111.50;4967585;28;6804;-72
2023/01/15 07:52:45;;;;;;;;;;;;;;;10.08;53.09;99108.81;4978077;28;7345;-72
2023/01/15 07:55:12;;;;;;;;;;;;;;;10.05;52.79;99127.53;4962553;28;6979;-73
2023/01/15 07:57:39;;;;;;;;;;;;;;;10.04;52.62;99123.22;4993460;28;7174;-72
2023/01/15 08:00:11;;;;;;;;;;;;;;;10.00;53.18;99123.97;4996755;28;6791;-72
2023/01/15 08:02:36;;;;;;;;;;;;;;;9.96;52.76;99130.69;4986300;28;11286;-72
2023/01/15 08:05:02;;;;;;;;;;;;;;;9.90;52.66;99130.50;4972878;28;6946;-72
2023/01/15 08:07:28;;;;;;;;;;;;;;;9.84;53.34;99130.31;4980264;28;7100;-72
2023/01/15 08:09:54;;;;;;;;;;;;;;;9.79;52.84;99127.63;4969485;28;7223;-75
2023/01/15 08:15:15;;;;;;;;;;;;;;;9.72;53.75;99135.91;4993582;28;6961;-72
2023/01/15 08:17:47;;;;;;;;;;;;;;;9.69;53.38;99140.94;4992846;28;6879;-72
2023/01/15 08:20:18;;;;;;;;;;;;;;;9.69;54.38;99146.91;4983288;28;7181;-72
2023/01/15 08:22:45;;;;;;;;;;;;;;;9.70;54.30;99145.25;4977626;28;7305;-73
2023/01/15 08:25:16;;;;;;;;;;;;;;;9.72;54.45;99146.16;4964645;28;6951;-73
2023/01/15 08:27:42;;;;;;;;;;;;;;;9.73;53.94;99142.75;4960844;28;6993;-72
2023/01/15 08:30:15;;;;;;;;;;;;;;;9.77;54.69;99142.06;4961398;28;6927;-72
2023/01/15 08:32:41;;;;;;;;;;;;;;;9.78;54.12;99151.47;4963417;28;12819;-73
2023/01/15 08:35:07;;;;;;;;;;;;;;;9.80;54.68;99142.16;4982120;28;6855;-73
2023/01/15 08:37:34;;;;;;;;;;;;;;;9.83;55.06;99146.50;4993541;28;7034;-73
2023/01/15 08:39:59;;;;;;;;;;;;;;;9.88;55.03;99141.53;4966663;28;7173;-72
2023/01/15 08:42:25;;;;;;;;;;;;;;;9.88;54.84;99144.06;4981965;28;6760;-73
2023/01/15 08:44:51;;;;;;;;;;;;;;;9.89;54.32;99156.91;4965376;28;6776;-72
2023/01/15 08:47:17;;;;;;;;;;;;;;;9.88;54.28;99147.50;4995032;28;6804;-73
2023/01/15 08:49:44;;;;;;;;;;;;;;;9.91;54.61;99152.72;4996575;28;7190;-73
2023/01/15 08:52:10;;;;;;;;;;;;;;;9.94;54.50;99142.56;4983044;28;7242;-72
2023/01/15 08:54:36;;;;;;;;;;;;;;;9.96;54.61;99140.06;4993013;28;7268;-72
2023/01/15 08:57:01;;;;;;;;;;;;;;;9.97;54.57;99146.91;4991079;28;7205;-72
2023/01/15 08:59:27;;;;;;;;;;;;;;;9.97;53.64;99124.72;4977731;28;6784;-73
2023/01/15 09:01:53;;;;;;;;;;;;;;;9.99;54.31;99119.66;4990421;28;6792;-72
2023/01/15 09:04:20;;;;;;;;;;;;;;;9.98;53.76;99144.38;4981698;28;6788;-72
2023/01/15 09:06:47;;;;;;;;;;;;;;;9.98;53.95;99134.16;4966178;28;7037;-72
2023/01/15 09:09:14;;;;;;;;;;;;;;;9.98;54.10;99130.72;4967794;28;8703;-72
2023/01/15 09:11:40;;;;;;;;;;;;;;;9.97;53.72;99132.41;4961682;28;6971;-73
2023/01/15 09:14:07;;;;;;;;;;;;;;;9.99;53.45;99129.91;4992846;28;6988;-73
2023/01/15 09:16:35;;;;;;;;;;;;;;;9.99;53.65;99133.34;4976510;28;7347;-72
2023/01/15 09:19:01;;;;;;;;;;;;;;;10.04;54.01;99130.03;4983916;28;6980;-73
2023/01/15 09:21:27;;;;;;;;;;;;;;;10.04;52.99;99132.59;4963463;28;6916;-72
2023/01/15 09:23:52;;;;;;;;;;;;;;;10.04;53.32;99130.03;4992717;28;7125;-72
2023/01/15 09:26:36;;;;;;;;;;;;;;;10.05;53.51;99137.78;4968781;28;6768;-72
2023/01/15 09:29:03;;;;;;;;;;;;;;;10.08;53.58;99119.94;4965926;28;6855;-72
2023/01/15 09:31:30;;;;;;;;;;;;;;;10.09;53.48;99120.78;4960462;28;6820;-72
2023/01/15 09:33:56;;;;;;;;;;;;;;;10.12;53.53;99143.94;4999671;28;7245;-73
2023/01/15 09:36:27;;;;;;;;;;;;;;;10.16;52.67;99127.84;4964850;28;6792;-73
2023/01/15 09:38:55;;;;;;;;;;;;;;;10.24;53.12;99133.19;4961053;28;7075;-72
2023/01/15 09:44:27;;;;;;;;;;;;;;;10.36;52.87;99119.84;4971996;28;6924;-72
2023/01/15 09:47:08;;;;;;;;;;;;;;;10.37;52.12;99109.66;4968172;28;6853;-72
2023/01/15 09:49:58;;;;;;;;;;;;;;;10.41;51.96;99116.63;4965879;28;6983;-73
2023/01/15 09:52:48;;;;;;;;;;;;;;;10.43;51.84;99119.25;4980433;28;7533;-73
2023/01/15 09:55:19;;;;;;;;;;;;;;;10.39;52.02;99120.81;4976574;28;7204;-73
2023/01/15 09:57:51;;;;;;;;;;;;;;;10.43;51.95;99132.06;4967017;28;9155;-72
2023/01/15 10:00:24;;;;;;;;;;;;;;;10.58;51.76;99138.44;4962157;28;8048;-72
2023/01/15 10:03:28;;;;;;;;;;;;;;;10.65;51.08;99142.88;4972825;28;7444;-72
2023/01/15 10:06:15;;;;;;;;;;;;;;;10.67;51.63;99136.09;4977392;28;6926;-72
2023/01/15 10:08:47;;;;;;;;;;;;;;;10.73;51.50;99141.41;4970828;28;6983;-72
2023/01/15 10:11:19;;;;;;;;;;;;;;;10.76;50.68;99149.16;4972422;28;6812;-72
2023/01/15 10:13:58;;;;;;;;;;;;;;;10.78;50.41;99132.16;4981837;28;6808;-73
2023/01/15 10:16:30;;;;;;;;;;;;;;;10.91;50.71;99150.41;4981288;28;8213;-73
2023/01/15 10:18:57;;;;;;;;;;;;;;;11.14;50.79;99157.84;4996069;28;6836;-73
2023/01/15 10:21:50;;;;;;;;;;;;;;;11.45;50.19;99162.03;4970463;28;6796;-72
2023/01/15 10:24:36;;;;;;;;;;;;;;;11.79;49.01;99157.72;4973532;28;6872;-73
2023/01/15 10:27:18;;;;;;;;;;;;;;;12.17;48.39;99151.72;4976109;28;11606;-73
2023/01/15 10:30:20;;;;;;;;;;;;;;;12.53;47.21;99149.88;4995429;28;6823;-73
2023/01/15 10:32:57;;;;;;;;;;;;;;;12.73;46.82;99155.44;4957533;28;11288;-73
2023/01/15 10:35:44;;;;;;;;;;;;;;;12.89;46.07;99159.16;4963273;28;7909;-73
2023/01/15 10:38:30;;;;;;;;;;;;;;;12.95;45.27;99139.53;4972935;28;6843;-73
2023/01/15 10:41:42;;;;;;;;;;;;;;;13.13;45.34;99151.84;4969725;28;6944;-72
2023/01/15 10:44:57;;;;;;;;;;;;;;;13.37;45.44;99156.56;4978994;28;6939;-72
2023/01/15 10:47:35;;;;;;;;;;;;;;;13.33;43.91;99160.78;4971233;28;6828;-72
2023/01/15 10:50:14;;;;;;;;;;;;;;;13.21;43.76;99163.16;4985712;28;7265;-73
2023/01/15 10:52:51;;;;;;;;;;;;;;;13.00;44.59;99161.06;4967601;28;6816;-72
2023/01/15 10:55:34;;;;;;;;;;;;;;;12.76;44.29;99172.63;4983831;28;6974;-73
2023/01/15 10:58:32;;;;;;;;;;;;;;;12.54;45.08;99156.75;4968505;28;6812;-72
2023/01/15 11:01:05;;;;;;;;;;;;;;;12.37;44.62;99176.97;4980152;28;6827;-73
2023/01/15 11:03:39;;;;;;;;;;;;;;;12.31;45.05;99177.72;4979270;28;6808;-73
2023/01/15 11:06:15;;;;;;;;;;;;;;;12.17;45.17;99171.44;4978474;28;6851;-73
2023/01/15 11:08:51;;;;;;;;;;;;;;;12.11;45.38;99163.59;4968004;28;6863;-73
2023/01/15 11:11:19;;;;;;;;;;;;;;;12.02;45.08;99188.22;4970875;28;8293;-73
2023/01/15 11:19:36;;;;;;;;;;;;;;;11.72;45.94;99184.06;4973981;28;6804;-72
2023/01/15 11:22:19;;;;;;;;;;;;;;;11.63;45.79;99181.28;4964963;28;6824;-73
2023/01/15 11:24:51;;;;;;;;;;;;;;;11.57;46.11;99183.69;4989125;28;8261;-73
2023/01/15 11:27:29;;;;;;;;;;;;;;;11.56;46.47;99175.16;4968043;28;8499;-73
2023/01/15 11:29:59;;;;;;;;;;;;;;;11.55;46.78;99175.97;4961826;28;6900;-72
2023/01/15 11:32:31;;;;;;;;;;;;;;;11.49;46.28;99174.13;4979921;28;6879;-72
2023/01/15 11:35:02;;;;;;;;;;;;;;;11.40;46.17;99155.94;4973800;28;7063;-73
2023/01/15 11:37:29;;;;;;;;;;;;;;;11.38;46.27;99139.63;4978159;28;6871;-72
2023/01/15 11:40:08;;;;;;;;;;;;;;;11.35;46.73;99147.25;4964773;28;7166;-72
2023/01/15 11:51:14;;;;;;;;;;;;;;;11.84;46.56;99121.91;4967530;28;7387;-72
2023/01/15 11:53:50;;;;;;;;;;;;;;;11.88;45.81;99145.91;4975630;28;6943;-73
2023/01/15 11:56:22;;;;;;;;;;;;;;;11.88;45.80;99144.22;4962567;28;6816;-73
2023/01/15 11:58:57;;;;;;;;;;;;;;;11.89;45.67;99137.41;4996644;28;6828;-72
2023/01/15 12:01:31;;;;;;;;;;;;;;;11.86;46.03;99150.16;4962637;28;7794;-72
2023/01/15 12:03:59;;;;;;;;;;;;;;;11.78;46.09;99150.88;4969500;28;6986;-73
2023/01/15 12:06:28;;;;;;;;;;;;;;;11.94;46.04;99136.66;4966588;28;6791;-72
2023/01/15 12:09:26;;;;;;;;;;;;;;;12.24;45.16;99137.31;4991061;28;7149;-73
2023/01/15 12:12:33;;;;;;;;;;;;;;;12.35;44.85;99146.09;4979667;28;7033;-72
2023/01/15 12:15:33;;;;;;;;;;;;;;;12.40;45.21;99142.78;4984365;28;7217;-73
2023/01/15 12:18:24;;;;;;;;;;;;;;;12.43;45.51;99101.72;4991564;28;6804;-73
2023/01/15 12:21:28;;;;;;;;;;;;;;;12.34;44.51;99135.81;4977168;28;7024;-73
2023/01/15 12:24:25;;;;;;;;;;;;;;;12.31;44.92;99139.19;4978861;28;7173;-72
2023/01/15 12:27:05;;;;;;;;;;;;;;;12.27;45.48;99139.97;4969748;28;7834;-72
2023/01/15 12:29:45;;;;;;;;;;;;;;;12.27;45.36;99132.25;4995189;28;6998;-73
2023/01/15 12:32:21;;;;;;;;;;;;;;;12.30;45.03;99147.72;4967318;28;6871;-72
2023/01/15 12:35:05;;;;;;;;;;;;;;;12.25;44.93;99143.34;4994375;28;6824;-73
2023/01/15 12:37:49;;;;;;;;;;;;;;;12.22;44.69;99150.16;4958200;28;7043;-72
2023/01/15 12:40:40;;;;;;;;;;;;;;;12.14;44.56;99146.53;4982390;28;7196;-73
2023/01/15 12:46:21;;;;;;;;;;;;;;;12.08;45.19;99138.69;4964290;28;6812;-72
2023/01/15 12:49:02;;;;;;;;;;;;;;;12.03;45.13;99132.59;4984529;28;6989;-72
2023/01/15 12:52:09;;;;;;;;;;;;;;;11.98;45.25;99140.19;4974382;28;6986;-72
2023/01/15 12:55:03;;;;;;;;;;;;;;;11.98;45.36;99127.34;4981658;28;6844;-72
2023/01/15 12:57:44;;;;;;;;;;;;;;;12.07;45.61;99131.81;4977967;28;6807;-72
2023/01/15 13:00:29;;;;;;;;;;;;;;;12.11;45.37;99125.91;4965999;28;6824;-72
2023/01/15 13:03:25;;;;;;;;;;;;;;;12.14;45.10;99125.13;4972117;28;6824;-72
2023/01/15 13:06:03;;;;;;;;;;;;;;;12.13;45.37;99125.94;4979786;28;6898;-72
2023/01/15 13:09:13;;;;;;;;;;;;;;;12.10;44.61;99133.59;4969183;28;6816;-72
2023/01/15 13:11:39;;;;;;;;;;;;;;;12.09;44.29;99135.28;4966718;28;6808;-72
2023/01/15 13:14:16;;;;;;;;;;;;;;;12.12;44.60;99148.22;4983095;28;7135;-72
2023/01/15 13:17:21;;;;;;;;;;;;;;;12.12;44.36;99131.91;4958977;28;7170;-72
2023/01/15 13:20:19;;;;;;;;;;;;;;;12.11;44.28;99146.44;4971707;28;6952;-72
2023/01/15 13:23:34;;;;;;;;;;;;;;;12.05;44.40;99162.59;4996619;28;7274;-72
2023/01/15 13:26:18;;;;;;;;;;;;;;;11.98;44.50;99149.56;4980674;28;6899;-72
2023/01/15 13:29:08;;;;;;;;;;;;;;;11.99;44.23;99157.31;4982813;28;7087;-72
2023/01/15 13:31:47;;;;;;;;;;;;;;;12.01;44.94;99172.72;4980913;28;6875;-72
2023/01/15 13:34:28;;;;;;;;;;;;;;;11.98;44.37;99176.13;4979357;28;6866;-72
2023/01/15 13:37:03;;;;;;;;;;;;;;;11.98;44.88;99160.72;4979647;28;6812;-72
2023/01/15 13:39:41;;;;;;;;;;;;;;;11.95;44.78;99166.66;4968130;28;6804;-72
2023/01/15 13:42:34;;;;;;;;;;;;;;;11.93;44.44;99172.56;4984948;28;6795;-72
2023/01/15 13:45:42;;;;;;;;;;;;;;;11.89;44.29;99170.78;4968964;28;7010;-72
2023/01/15 13:48:25;;;;;;;;;;;;;;;11.90;44.48;99175.09;4980454;28;6804;-72
2023/01/15 13:51:00;;;;;;;;;;;;;;;11.90;44.58;99178.50;4982662;28;7136;-71
2023/01/15 13:53:25;;;;;;;;;;;;;;;11.88;44.51;99161.31;4970926;28;7015;-72
2023/01/15 13:55:56;;;;;;;;;;;;;;;11.90;44.16;99183.63;4981929;28;6796;-72
2023/01/15 13:58:28;;;;;;;;;;;;;;;11.90;44.27;99182.78;4963768;28;7432;-72
2023/01/15 14:01:35;;;;;;;;;;;;;;;11.88;44.60;99180.16;4978900;28;6812;-72
2023/01/15 14:04:11;;;;;;;;;;;;;;;11.84;44.25;99172.34;4965007;28;7000;-72
2023/01/15 14:06:50;;;;;;;;;;;;;;;11.81;44.46;99168.91;4982516;28;6799;-72
2023/01/15 14:09:21;;;;;;;;;;;;;;;11.78;44.24;99176.53;4964571;28;7056;-72
2023/01/15 14:12:16;;;;;;;;;;;;;;;11.73;44.73;99178.13;4980730;28;7223;-72
2023/01/15 14:15:06;;;;;;;;;;;;;;;11.70;44.51;99170.34;4980278;28;6824;-72